sensor_id;sensor_type;location;lat;lon;timestamp;temperature;humidity
28837;DHT22;50669;50.982;11.022;2022-12-07T00:01:13;2.40;99.90
28837;DHT22;50669;50.982;11.022;2022-12-07T00:03:40;2.50;99.90
28837;DHT22;50669;50.982;11.022;2022-12-07T00:06:07;2.40;99.90
28837;DHT22;50669;50.982;11.022;2022-12-07T00:08:37;2.50;99.90
28837;DHT22;50669;50.982;11.022;2022-12-07T00:11:03;2.40;99.90
28837;DHT22;50669;50.982;11.022;2022-12-07T00:13:31;2.40;99.90
28837;DHT22;50669;50.982;11.022;2022-12-07T00:18:33;2.40;99.90
28837;DHT22;50669;50.982;11.022;2022-12-07T00:21:00;2.40;99.90
28837;DHT22;50669;50.982;11.022;2022-12-07T00:23:26;2.40;99.90
28837;DHT22;50669;50.982;11.022;2022-12-07T00:25:52;2.40;99.90
28837;DHT22;50669;50.982;11.022;2022-12-07T00:28:20;2.40;99.90
28837;DHT22;50669;50.982;11.022;2022-12-07T00:30:45;2.30;99.90
28837;DHT22;50669;50.982;11.022;2022-12-07T00:33:11;2.30;99.90
28837;DHT22;50669;50.982;11.022;2022-12-07T00:35:39;2.30;99.90
28837;DHT22;50669;50.982;11.022;2022-12-07T00:38:04;2.30;99.90
28837;DHT22;50669;50.982;11.022;2022-12-07T00:40:30;2.30;99.90
28837;DHT22;50669;50.982;11.022;2022-12-07T00:42:58;2.40;99.90
28837;DHT22;50669;50.982;11.022;2022-12-07T00:45:24;2.40;99.90
28837;DHT22;50669;50.982;11.022;2022-12-07T00:47:52;2.40;99.90
28837;DHT22;50669;50.982;11.022;2022-12-07T00:50:20;2.40;99.90
28837;DHT22;50669;50.982;11.022;2022-12-07T00:52:45;2.50;99.90
28837;DHT22;50669;50.982;11.022;2022-12-07T00:55:11;2.50;99.90
28837;DHT22;50669;50.982;11.022;2022-12-07T00:57:39;2.50;99.90
28837;DHT22;50669;50.982;11.022;2022-12-07T01:00:05;2.50;99.90
28837;DHT22;50669;50.982;11.022;2022-12-07T01:02:31;2.50;99.90
28837;DHT22;50669;50.982;11.022;2022-12-07T01:04:57;2.60;99.90
28837;DHT22;50669;50.982;11.022;2022-12-07T01:07:24;2.50;99.90
28837;DHT22;50669;50.982;11.022;2022-12-07T01:09:50;2.50;99.90
28837;DHT22;50669;50.982;11.022;2022-12-07T01:12:15;2.50;99.90
28837;DHT22;50669;50.982;11.022;2022-12-07T01:14:42;2.40;99.90
28837;DHT22;50669;50.982;11.022;2022-12-07T01:17:10;2.30;99.90
28837;DHT22;50669;50.982;11.022;2022-12-07T01:19:41;2.30;99.90
28837;DHT22;50669;50.982;11.022;2022-12-07T01:22:09;2.30;99.90
28837;DHT22;50669;50.982;11.022;2022-12-07T01:24:34;2.30;99.90
28837;DHT22;50669;50.982;11.022;2022-12-07T01:27:00;2.30;99.90
28837;DHT22;50669;50.982;11.022;2022-12-07T01:29:26;2.30;99.90
28837;DHT22;50669;50.982;11.022;2022-12-07T01:31:51;2.30;99.90
28837;DHT22;50669;50.982;11.022;2022-12-07T01:34:19;2.30;99.90
28837;DHT22;50669;50.982;11.022;2022-12-07T01:36:45;2.30;99.90
28837;DHT22;50669;50.982;11.022;2022-12-07T01:39:10;2.30;99.90
28837;DHT22;50669;50.982;11.022;2022-12-07T01:41:39;2.30;99.90
28837;DHT22;50669;50.982;11.022;2022-12-07T01:44:29;2.30;99.90
28837;DHT22;50669;50.982;11.022;2022-12-07T01:47:01;2.30;99.90
28837;DHT22;50669;50.982;11.022;2022-12-07T01:49:42;2.40;99.90
28837;DHT22;50669;50.982;11.022;2022-12-07T01:52:13;2.40;99.90
28837;DHT22;50669;50.982;11.022;2022-12-07T01:54:44;2.40;99.90
28837;DHT22;50669;50.982;11.022;2022-12-07T01:57:18;2.40;99.90
28837;DHT22;50669;50.982;11.022;2022-12-07T01:59:45;2.40;99.90
28837;DHT22;50669;50.982;11.022;2022-12-07T02:02:19;2.50;99.90
28837;DHT22;50669;50.982;11.022;2022-12-07T02:04:46;2.60;99.90
28837;DHT22;50669;50.982;11.022;2022-12-07T02:07:12;2.70;99.90
28837;DHT22;50669;50.982;11.022;2022-12-07T02:09:38;3.10;99.90
28837;DHT22;50669;50.982;11.022;2022-12-07T02:12:04;3.00;99.90
28837;DHT22;50669;50.982;11.022;2022-12-07T02:14:30;2.90;99.90
28837;DHT22;50669;50.982;11.022;2022-12-07T02:31:36;2.60;99.90
28837;DHT22;50669;50.982;11.022;2022-12-07T02:34:11;2.60;99.90
28837;DHT22;50669;50.982;11.022;2022-12-07T02:36:46;2.60;99.90
28837;DHT22;50669;50.982;11.022;2022-12-07T02:39:25;2.60;99.90
28837;DHT22;50669;50.982;11.022;2022-12-07T02:41:58;2.60;99.90
28837;DHT22;50669;50.982;11.022;2022-12-07T02:44:27;2.60;99.90
28837;DHT22;50669;50.982;11.022;2022-12-07T02:46:59;2.70;99.90
28837;DHT22;50669;50.982;11.022;2022-12-07T02:49:26;2.80;99.90
28837;DHT22;50669;50.982;11.022;2022-12-07T02:51:55;2.80;99.90
28837;DHT22;50669;50.982;11.022;2022-12-07T02:54:21;2.90;99.90
28837;DHT22;50669;50.982;11.022;2022-12-07T02:56:57;2.90;99.90
28837;DHT22;50669;50.982;11.022;2022-12-07T03:10:49;3.00;99.90
28837;DHT22;50669;50.982;11.022;2022-12-07T03:13:33;3.00;99.90
28837;DHT22;50669;50.982;11.022;2022-12-07T03:16:12;3.00;99.90
28837;DHT22;50669;50.982;11.022;2022-12-07T03:18:59;3.00;99.90
28837;DHT22;50669;50.982;11.022;2022-12-07T03:21:37;3.10;99.90
28837;DHT22;50669;50.982;11.022;2022-12-07T03:24:10;3.10;99.90
28837;DHT22;50669;50.982;11.022;2022-12-07T03:26:49;3.20;99.90
28837;DHT22;50669;50.982;11.022;2022-12-07T03:29:36;3.20;99.90
28837;DHT22;50669;50.982;11.022;2022-12-07T03:32:10;3.20;99.90
28837;DHT22;50669;50.982;11.022;2022-12-07T03:34:56;3.20;99.90
28837;DHT22;50669;50.982;11.022;2022-12-07T03:37:36;3.20;99.90
28837;DHT22;50669;50.982;11.022;2022-12-07T03:42:53;3.20;99.90
28837;DHT22;50669;50.982;11.022;2022-12-07T03:45:24;3.20;99.90
28837;DHT22;50669;50.982;11.022;2022-12-07T03:48:05;3.20;99.90
28837;DHT22;50669;50.982;11.022;2022-12-07T03:53:36;3.10;99.90
28837;DHT22;50669;50.982;11.022;2022-12-07T03:56:05;3.10;99.90
28837;DHT22;50669;50.982;11.022;2022-12-07T03:58:34;3.10;99.90
28837;DHT22;50669;50.982;11.022;2022-12-07T04:01:05;3.10;99.90
28837;DHT22;50669;50.982;11.022;2022-12-07T04:03:35;3.10;99.90
28837;DHT22;50669;50.982;11.022;2022-12-07T04:06:01;3.10;99.90
28837;DHT22;50669;50.982;11.022;2022-12-07T04:08:27;3.20;99.90
28837;DHT22;50669;50.982;11.022;2022-12-07T04:10:53;3.20;99.90
28837;DHT22;50669;50.982;11.022;2022-12-07T04:13:18;3.20;99.90
28837;DHT22;50669;50.982;11.022;2022-12-07T04:15:44;3.30;99.90
28837;DHT22;50669;50.982;11.022;2022-12-07T04:18:12;3.20;99.90
28837;DHT22;50669;50.982;11.022;2022-12-07T04:20:40;3.20;99.90
28837;DHT22;50669;50.982;11.022;2022-12-07T04:23:06;3.20;99.90
28837;DHT22;50669;50.982;11.022;2022-12-07T04:25:32;3.20;99.90
28837;DHT22;50669;50.982;11.022;2022-12-07T04:27:57;3.30;99.90
28837;DHT22;50669;50.982;11.022;2022-12-07T04:30:23;3.30;99.90
28837;DHT22;50669;50.982;11.022;2022-12-07T04:32:49;3.30;99.90
28837;DHT22;50669;50.982;11.022;2022-12-07T04:35:14;3.30;99.90
28837;DHT22;50669;50.982;11.022;2022-12-07T04:37:40;3.40;99.90
28837;DHT22;50669;50.982;11.022;2022-12-07T04:40:08;3.30;99.90
28837;DHT22;50669;50.982;11.022;2022-12-07T04:42:38;3.30;99.90
28837;DHT22;50669;50.982;11.022;2022-12-07T04:45:04;3.40;99.90
28837;DHT22;50669;50.982;11.022;2022-12-07T04:47:35;3.30;99.90
28837;DHT22;50669;50.982;11.022;2022-12-07T04:50:00;3.40;99.90
28837;DHT22;50669;50.982;11.022;2022-12-07T04:52:30;3.40;99.90
28837;DHT22;50669;50.982;11.022;2022-12-07T04:54:56;3.40;99.90
28837;DHT22;50669;50.982;11.022;2022-12-07T04:57:24;3.50;99.90
28837;DHT22;50669;50.982;11.022;2022-12-07T04:59:49;3.50;99.90
28837;DHT22;50669;50.982;11.022;2022-12-07T05:02:15;3.50;99.90
28837;DHT22;50669;50.982;11.022;2022-12-07T05:04:41;3.50;99.90
28837;DHT22;50669;50.982;11.022;2022-12-07T05:07:06;3.60;99.90
28837;DHT22;50669;50.982;11.022;2022-12-07T05:09:34;3.60;99.90
28837;DHT22;50669;50.982;11.022;2022-12-07T05:12:00;3.60;99.90
28837;DHT22;50669;50.982;11.022;2022-12-07T05:14:25;3.60;99.90
28837;DHT22;50669;50.982;11.022;2022-12-07T05:16:51;3.60;99.90
28837;DHT22;50669;50.982;11.022;2022-12-07T05:19:19;3.70;99.90
28837;DHT22;50669;50.982;11.022;2022-12-07T05:21:47;3.70;99.90
28837;DHT22;50669;50.982;11.022;2022-12-07T05:24:17;3.70;99.90
28837;DHT22;50669;50.982;11.022;2022-12-07T05:26:43;3.70;99.90
28837;DHT22;50669;50.982;11.022;2022-12-07T05:29:12;3.70;99.90
28837;DHT22;50669;50.982;11.022;2022-12-07T05:31:37;3.80;99.90
28837;DHT22;50669;50.982;11.022;2022-12-07T05:34:03;3.80;99.90
28837;DHT22;50669;50.982;11.022;2022-12-07T05:36:29;3.80;99.90
28837;DHT22;50669;50.982;11.022;2022-12-07T05:38:57;3.90;99.90
28837;DHT22;50669;50.982;11.022;2022-12-07T05:41:25;3.80;99.90
28837;DHT22;50669;50.982;11.022;2022-12-07T05:44:09;3.90;99.90
28837;DHT22;50669;50.982;11.022;2022-12-07T05:46:35;3.90;99.90
28837;DHT22;50669;50.982;11.022;2022-12-07T05:49:03;3.80;99.90
28837;DHT22;50669;50.982;11.022;2022-12-07T05:51:31;3.80;99.90
28837;DHT22;50669;50.982;11.022;2022-12-07T05:53:59;3.80;99.90
28837;DHT22;50669;50.982;11.022;2022-12-07T05:56:27;3.90;99.90
28837;DHT22;50669;50.982;11.022;2022-12-07T05:58:54;3.90;99.90
28837;DHT22;50669;50.982;11.022;2022-12-07T06:01:40;3.90;99.90
28837;DHT22;50669;50.982;11.022;2022-12-07T06:04:06;3.90;99.90
28837;DHT22;50669;50.982;11.022;2022-12-07T06:06:34;3.90;99.90
28837;DHT22;50669;50.982;11.022;2022-12-07T06:09:00;3.90;99.90
28837;DHT22;50669;50.982;11.022;2022-12-07T06:11:25;4.00;99.90
28837;DHT22;50669;50.982;11.022;2022-12-07T06:14:09;3.90;99.90
28837;DHT22;50669;50.982;11.022;2022-12-07T06:16:35;3.90;99.90
28837;DHT22;50669;50.982;11.022;2022-12-07T06:19:01;3.80;99.90
28837;DHT22;50669;50.982;11.022;2022-12-07T06:21:26;3.80;99.90
28837;DHT22;50669;50.982;11.022;2022-12-07T06:23:53;3.80;99.90
28837;DHT22;50669;50.982;11.022;2022-12-07T06:26:19;3.70;99.90
28837;DHT22;50669;50.982;11.022;2022-12-07T06:28:44;3.70;99.90
28837;DHT22;50669;50.982;11.022;2022-12-07T06:31:10;3.60;99.90
28837;DHT22;50669;50.982;11.022;2022-12-07T06:33:36;3.60;99.90
28837;DHT22;50669;50.982;11.022;2022-12-07T06:36:03;3.60;99.90
28837;DHT22;50669;50.982;11.022;2022-12-07T06:38:29;3.50;99.90
28837;DHT22;50669;50.982;11.022;2022-12-07T06:40:57;3.50;99.90
28837;DHT22;50669;50.982;11.022;2022-12-07T06:43:23;3.50;99.90
28837;DHT22;50669;50.982;11.022;2022-12-07T06:45:51;3.50;99.90
28837;DHT22;50669;50.982;11.022;2022-12-07T06:48:19;3.50;99.90
28837;DHT22;50669;50.982;11.022;2022-12-07T06:50:46;3.50;99.90
28837;DHT22;50669;50.982;11.022;2022-12-07T06:53:11;3.50;99.90
28837;DHT22;50669;50.982;11.022;2022-12-07T06:55:40;3.50;99.90
28837;DHT22;50669;50.982;11.022;2022-12-07T06:58:07;3.60;99.90
28837;DHT22;50669;50.982;11.022;2022-12-07T07:00:36;3.60;99.90
28837;DHT22;50669;50.982;11.022;2022-12-07T07:03:01;3.60;99.90
28837;DHT22;50669;50.982;11.022;2022-12-07T07:05:27;3.70;99.90
28837;DHT22;50669;50.982;11.022;2022-12-07T07:07:55;3.60;99.90
28837;DHT22;50669;50.982;11.022;2022-12-07T07:10:23;3.60;99.90
28837;DHT22;50669;50.982;11.022;2022-12-07T07:12:48;3.60;99.90
28837;DHT22;50669;50.982;11.022;2022-12-07T07:15:14;3.60;99.90
28837;DHT22;50669;50.982;11.022;2022-12-07T07:17:43;3.60;99.90
28837;DHT22;50669;50.982;11.022;2022-12-07T07:20:09;3.60;99.90
28837;DHT22;50669;50.982;11.022;2022-12-07T07:22:34;3.60;99.90
28837;DHT22;50669;50.982;11.022;2022-12-07T07:25:02;3.60;99.90
28837;DHT22;50669;50.982;11.022;2022-12-07T07:27:31;3.60;99.90
28837;DHT22;50669;50.982;11.022;2022-12-07T07:29:59;3.60;99.90
28837;DHT22;50669;50.982;11.022;2022-12-07T07:32:25;3.60;99.90
28837;DHT22;50669;50.982;11.022;2022-12-07T07:34:55;3.60;99.90
28837;DHT22;50669;50.982;11.022;2022-12-07T07:37:23;3.60;99.90
28837;DHT22;50669;50.982;11.022;2022-12-07T07:39:49;3.60;99.90
28837;DHT22;50669;50.982;11.022;2022-12-07T07:42:17;3.60;99.90
28837;DHT22;50669;50.982;11.022;2022-12-07T07:44:43;3.70;99.90
28837;DHT22;50669;50.982;11.022;2022-12-07T07:47:10;3.70;99.90
28837;DHT22;50669;50.982;11.022;2022-12-07T07:49:36;3.80;99.90
28837;DHT22;50669;50.982;11.022;2022-12-07T07:52:02;3.80;99.90
28837;DHT22;50669;50.982;11.022;2022-12-07T07:54:28;3.80;99.90
28837;DHT22;50669;50.982;11.022;2022-12-07T07:56:56;3.80;99.90
28837;DHT22;50669;50.982;11.022;2022-12-07T07:59:24;3.80;99.90
28837;DHT22;50669;50.982;11.022;2022-12-07T08:01:50;3.90;99.90
28837;DHT22;50669;50.982;11.022;2022-12-07T08:04:16;3.90;99.90
28837;DHT22;50669;50.982;11.022;2022-12-07T08:06:46;3.80;99.90
28837;DHT22;50669;50.982;11.022;2022-12-07T08:09:12;3.90;99.90
28837;DHT22;50669;50.982;11.022;2022-12-07T08:11:38;3.90;99.90
28837;DHT22;50669;50.982;11.022;2022-12-07T08:14:03;3.90;99.90
28837;DHT22;50669;50.982;11.022;2022-12-07T08:16:29;3.90;99.90
28837;DHT22;50669;50.982;11.022;2022-12-07T08:19:00;3.90;99.90
28837;DHT22;50669;50.982;11.022;2022-12-07T08:21:25;3.90;99.90
28837;DHT22;50669;50.982;11.022;2022-12-07T08:23:51;3.90;99.90
28837;DHT22;50669;50.982;11.022;2022-12-07T08:26:17;4.00;99.90
28837;DHT22;50669;50.982;11.022;2022-12-07T08:28:42;4.00;99.90
28837;DHT22;50669;50.982;11.022;2022-12-07T08:31:12;4.00;99.90
28837;DHT22;50669;50.982;11.022;2022-12-07T08:33:38;4.00;99.90
28837;DHT22;50669;50.982;11.022;2022-12-07T08:36:08;4.10;99.90
28837;DHT22;50669;50.982;11.022;2022-12-07T08:38:37;4.10;99.90
28837;DHT22;50669;50.982;11.022;2022-12-07T08:41:03;4.20;99.90
28837;DHT22;50669;50.982;11.022;2022-12-07T08:43:34;4.20;99.90
28837;DHT22;50669;50.982;11.022;2022-12-07T08:48:31;4.30;99.90
28837;DHT22;50669;50.982;11.022;2022-12-07T08:51:00;4.40;99.90
28837;DHT22;50669;50.982;11.022;2022-12-07T08:53:28;4.50;99.90
28837;DHT22;50669;50.982;11.022;2022-12-07T08:55:56;4.50;99.90
28837;DHT22;50669;50.982;11.022;2022-12-07T08:58:25;4.50;99.90
28837;DHT22;50669;50.982;11.022;2022-12-07T09:00:51;4.60;99.90
28837;DHT22;50669;50.982;11.022;2022-12-07T09:03:17;4.60;99.90
28837;DHT22;50669;50.982;11.022;2022-12-07T09:05:48;4.60;99.90
28837;DHT22;50669;50.982;11.022;2022-12-07T09:08:13;4.70;99.90
28837;DHT22;50669;50.982;11.022;2022-12-07T09:10:39;4.80;99.90
28837;DHT22;50669;50.982;11.022;2022-12-07T09:13:05;4.80;99.90
28837;DHT22;50669;50.982;11.022;2022-12-07T09:15:33;4.70;99.90
28837;DHT22;50669;50.982;11.022;2022-12-07T09:17:58;4.70;99.90
28837;DHT22;50669;50.982;11.022;2022-12-07T09:20:26;4.80;99.90
28837;DHT22;50669;50.982;11.022;2022-12-07T09:22:55;4.80;99.90
28837;DHT22;50669;50.982;11.022;2022-12-07T09:25:21;4.80;99.90
28837;DHT22;50669;50.982;11.022;2022-12-07T09:27:51;4.80;99.90
28837;DHT22;50669;50.982;11.022;2022-12-07T09:30:20;4.90;99.90
28837;DHT22;50669;50.982;11.022;2022-12-07T09:32:45;5.00;99.90
28837;DHT22;50669;50.982;11.022;2022-12-07T09:35:11;5.00;99.90
28837;DHT22;50669;50.982;11.022;2022-12-07T09:37:39;5.00;99.90
28837;DHT22;50669;50.982;11.022;2022-12-07T09:40:05;5.00;99.90
28837;DHT22;50669;50.982;11.022;2022-12-07T09:45:00;5.10;99.90
28837;DHT22;50669;50.982;11.022;2022-12-07T09:47:29;5.20;99.90
28837;DHT22;50669;50.982;11.022;2022-12-07T09:50:03;5.10;99.90
28837;DHT22;50669;50.982;11.022;2022-12-07T09:52:32;5.20;99.90
28837;DHT22;50669;50.982;11.022;2022-12-07T09:54:58;5.20;99.90
28837;DHT22;50669;50.982;11.022;2022-12-07T09:57:31;5.30;99.90
28837;DHT22;50669;50.982;11.022;2022-12-07T10:00:20;5.50;99.90
28837;DHT22;50669;50.982;11.022;2022-12-07T10:03:01;5.70;99.90
28837;DHT22;50669;50.982;11.022;2022-12-07T10:05:47;5.80;99.90
28837;DHT22;50669;50.982;11.022;2022-12-07T10:08:14;6.10;99.90
28837;DHT22;50669;50.982;11.022;2022-12-07T10:10:46;6.60;99.90
28837;DHT22;50669;50.982;11.022;2022-12-07T10:13:33;7.00;99.90
28837;DHT22;50669;50.982;11.022;2022-12-07T10:15:58;6.70;99.90
28837;DHT22;50669;50.982;11.022;2022-12-07T10:18:37;6.30;99.90
28837;DHT22;50669;50.982;11.022;2022-12-07T10:23:58;6.00;99.90
28837;DHT22;50669;50.982;11.022;2022-12-07T10:26:32;5.90;99.90
28837;DHT22;50669;50.982;11.022;2022-12-07T10:29:00;5.70;99.90
28837;DHT22;50669;50.982;11.022;2022-12-07T10:31:26;5.70;99.90
28837;DHT22;50669;50.982;11.022;2022-12-07T10:33:56;5.70;99.90
28837;DHT22;50669;50.982;11.022;2022-12-07T10:36:26;6.10;99.90
28837;DHT22;50669;50.982;11.022;2022-12-07T10:41:31;6.50;99.90
28837;DHT22;50669;50.982;11.022;2022-12-07T10:43:57;6.70;99.90
28837;DHT22;50669;50.982;11.022;2022-12-07T10:51:36;8.00;99.90
28837;DHT22;50669;50.982;11.022;2022-12-07T10:54:17;9.00;99.90
28837;DHT22;50669;50.982;11.022;2022-12-07T10:57:04;9.80;99.90
28837;DHT22;50669;50.982;11.022;2022-12-07T10:59:56;9.00;99.90
28837;DHT22;50669;50.982;11.022;2022-12-07T11:08:37;7.80;99.90
28837;DHT22;50669;50.982;11.022;2022-12-07T11:13:32;8.70;99.90
28837;DHT22;50669;50.982;11.022;2022-12-07T11:19:06;9.40;99.90
28837;DHT22;50669;50.982;11.022;2022-12-07T11:22:16;9.20;99.90
28837;DHT22;50669;50.982;11.022;2022-12-07T11:24:53;9.00;99.90
28837;DHT22;50669;50.982;11.022;2022-12-07T11:30:10;7.80;99.90
28837;DHT22;50669;50.982;11.022;2022-12-07T11:38:07;8.10;99.90
28837;DHT22;50669;50.982;11.022;2022-12-07T11:40:36;7.90;99.90
28837;DHT22;50669;50.982;11.022;2022-12-07T11:46:15;7.40;99.90
28837;DHT22;50669;50.982;11.022;2022-12-07T11:48:55;7.20;99.90
28837;DHT22;50669;50.982;11.022;2022-12-07T11:51:24;6.90;99.90
28837;DHT22;50669;50.982;11.022;2022-12-07T11:54:01;6.70;99.90
28837;DHT22;50669;50.982;11.022;2022-12-07T11:56:29;6.60;99.90
28837;DHT22;50669;50.982;11.022;2022-12-07T12:01:55;6.60;99.90
28837;DHT22;50669;50.982;11.022;2022-12-07T12:04:32;6.50;99.90
28837;DHT22;50669;50.982;11.022;2022-12-07T12:07:02;6.50;99.90
28837;DHT22;50669;50.982;11.022;2022-12-07T12:09:40;6.30;99.90
28837;DHT22;50669;50.982;11.022;2022-12-07T12:20:48;5.90;99.90
28837;DHT22;50669;50.982;11.022;2022-12-07T12:23:17;5.90;99.90
28837;DHT22;50669;50.982;11.022;2022-12-07T12:39:07;6.30;99.90
28837;DHT22;50669;50.982;11.022;2022-12-07T12:47:00;6.00;99.90
28837;DHT22;50669;50.982;11.022;2022-12-07T12:49:40;6.00;99.90
28837;DHT22;50669;50.982;11.022;2022-12-07T12:57:30;5.90;99.90
28837;DHT22;50669;50.982;11.022;2022-12-07T12:59:58;5.90;99.90
28837;DHT22;50669;50.982;11.022;2022-12-07T13:18:37;5.50;99.90
28837;DHT22;50669;50.982;11.022;2022-12-07T13:21:40;5.50;99.90
28837;DHT22;50669;50.982;11.022;2022-12-07T13:29:18;5.50;99.90
28837;DHT22;50669;50.982;11.022;2022-12-07T13:31:55;5.60;99.90
28837;DHT22;50669;50.982;11.022;2022-12-07T13:34:34;5.60;99.90
28837;DHT22;50669;50.982;11.022;2022-12-07T13:37:15;5.60;99.90
28837;DHT22;50669;50.982;11.022;2022-12-07T13:39:52;5.60;99.90
28837;DHT22;50669;50.982;11.022;2022-12-07T13:42:28;5.50;99.90
28837;DHT22;50669;50.982;11.022;2022-12-07T13:44:57;5.40;99.90
28837;DHT22;50669;50.982;11.022;2022-12-07T13:47:42;5.40;99.90
28837;DHT22;50669;50.982;11.022;2022-12-07T13:50:30;5.40;99.90
28837;DHT22;50669;50.982;11.022;2022-12-07T13:53:00;5.40;99.90
28837;DHT22;50669;50.982;11.022;2022-12-07T13:55:29;5.40;99.90
28837;DHT22;50669;50.982;11.022;2022-12-07T13:57:56;5.40;99.90
28837;DHT22;50669;50.982;11.022;2022-12-07T14:00:26;5.30;99.90
28837;DHT22;50669;50.982;11.022;2022-12-07T14:03:26;5.30;99.90
28837;DHT22;50669;50.982;11.022;2022-12-07T14:06:25;5.20;99.90
28837;DHT22;50669;50.982;11.022;2022-12-07T14:09:30;5.30;99.90
28837;DHT22;50669;50.982;11.022;2022-12-07T14:11:56;5.30;99.90
28837;DHT22;50669;50.982;11.022;2022-12-07T14:14:27;5.30;99.90
28837;DHT22;50669;50.982;11.022;2022-12-07T14:17:15;5.30;99.90
28837;DHT22;50669;50.982;11.022;2022-12-07T14:19:57;5.20;99.90
28837;DHT22;50669;50.982;11.022;2022-12-07T14:22:36;5.20;99.90
28837;DHT22;50669;50.982;11.022;2022-12-07T14:30:17;5.10;99.90
28837;DHT22;50669;50.982;11.022;2022-12-07T14:32:50;5.10;99.90
28837;DHT22;50669;50.982;11.022;2022-12-07T14:35:19;5.00;99.90
28837;DHT22;50669;50.982;11.022;2022-12-07T14:37:47;5.00;99.90
28837;DHT22;50669;50.982;11.022;2022-12-07T14:40:22;4.90;99.90
28837;DHT22;50669;50.982;11.022;2022-12-07T14:42:51;4.90;99.90
28837;DHT22;50669;50.982;11.022;2022-12-07T14:45:21;4.80;99.90
28837;DHT22;50669;50.982;11.022;2022-12-07T14:47:50;4.90;99.90
28837;DHT22;50669;50.982;11.022;2022-12-07T14:50:18;4.80;99.90
28837;DHT22;50669;50.982;11.022;2022-12-07T14:52:48;4.80;99.90
28837;DHT22;50669;50.982;11.022;2022-12-07T14:57:50;4.70;99.90
28837;DHT22;50669;50.982;11.022;2022-12-07T15:00:21;4.60;99.90
28837;DHT22;50669;50.982;11.022;2022-12-07T15:02:47;4.60;99.90
28837;DHT22;50669;50.982;11.022;2022-12-07T15:05:17;4.60;99.90
28837;DHT22;50669;50.982;11.022;2022-12-07T15:07:44;4.60;99.90
28837;DHT22;50669;50.982;11.022;2022-12-07T15:12:41;4.50;99.90
28837;DHT22;50669;50.982;11.022;2022-12-07T15:15:07;4.50;99.90
28837;DHT22;50669;50.982;11.022;2022-12-07T15:17:33;4.40;99.90
28837;DHT22;50669;50.982;11.022;2022-12-07T15:19:59;4.40;99.90
28837;DHT22;50669;50.982;11.022;2022-12-07T15:22:25;4.40;99.90
28837;DHT22;50669;50.982;11.022;2022-12-07T15:24:50;4.40;99.90
28837;DHT22;50669;50.982;11.022;2022-12-07T15:27:18;4.40;99.90
28837;DHT22;50669;50.982;11.022;2022-12-07T15:29:44;4.40;99.90
28837;DHT22;50669;50.982;11.022;2022-12-07T15:32:09;4.40;99.90
28837;DHT22;50669;50.982;11.022;2022-12-07T15:34:37;4.30;99.90
28837;DHT22;50669;50.982;11.022;2022-12-07T15:37:03;4.40;99.90
28837;DHT22;50669;50.982;11.022;2022-12-07T15:39:32;4.40;99.90
28837;DHT22;50669;50.982;11.022;2022-12-07T15:42:00;4.40;99.90
28837;DHT22;50669;50.982;11.022;2022-12-07T15:44:25;4.40;99.90
28837;DHT22;50669;50.982;11.022;2022-12-07T15:47:14;4.40;99.90
28837;DHT22;50669;50.982;11.022;2022-12-07T15:49:42;4.40;99.90
28837;DHT22;50669;50.982;11.022;2022-12-07T15:52:08;4.40;99.90
28837;DHT22;50669;50.982;11.022;2022-12-07T15:54:34;4.40;99.90
28837;DHT22;50669;50.982;11.022;2022-12-07T15:56:59;4.30;99.90
28837;DHT22;50669;50.982;11.022;2022-12-07T15:59:30;4.30;99.90
28837;DHT22;50669;50.982;11.022;2022-12-07T16:01:56;4.30;99.90
28837;DHT22;50669;50.982;11.022;2022-12-07T16:04:24;4.30;99.90
28837;DHT22;50669;50.982;11.022;2022-12-07T16:06:52;4.20;99.90
28837;DHT22;50669;50.982;11.022;2022-12-07T16:09:20;4.20;99.90
28837;DHT22;50669;50.982;11.022;2022-12-07T16:11:46;4.30;99.90
28837;DHT22;50669;50.982;11.022;2022-12-07T16:14:14;4.20;99.90
28837;DHT22;50669;50.982;11.022;2022-12-07T16:16:40;4.20;99.90
28837;DHT22;50669;50.982;11.022;2022-12-07T16:19:09;4.20;99.90
28837;DHT22;50669;50.982;11.022;2022-12-07T16:21:36;4.30;99.90
28837;DHT22;50669;50.982;11.022;2022-12-07T16:24:02;4.30;99.90
28837;DHT22;50669;50.982;11.022;2022-12-07T16:26:28;4.20;99.90
28837;DHT22;50669;50.982;11.022;2022-12-07T16:28:54;4.20;99.90
28837;DHT22;50669;50.982;11.022;2022-12-07T16:31:23;4.10;99.90
28837;DHT22;50669;50.982;11.022;2022-12-07T16:33:49;4.00;99.90
28837;DHT22;50669;50.982;11.022;2022-12-07T16:36:16;4.00;99.90
28837;DHT22;50669;50.982;11.022;2022-12-07T16:38:42;4.00;99.90
28837;DHT22;50669;50.982;11.022;2022-12-07T16:41:11;3.90;99.90
28837;DHT22;50669;50.982;11.022;2022-12-07T16:43:37;3.90;99.90
28837;DHT22;50669;50.982;11.022;2022-12-07T16:46:03;3.90;99.90
28837;DHT22;50669;50.982;11.022;2022-12-07T16:48:29;3.90;99.90
28837;DHT22;50669;50.982;11.022;2022-12-07T16:50:59;3.90;99.90
28837;DHT22;50669;50.982;11.022;2022-12-07T16:53:27;3.90;99.90
28837;DHT22;50669;50.982;11.022;2022-12-07T16:55:53;3.80;99.90
28837;DHT22;50669;50.982;11.022;2022-12-07T16:58:19;3.80;99.90
28837;DHT22;50669;50.982;11.022;2022-12-07T17:00:45;3.80;99.90
28837;DHT22;50669;50.982;11.022;2022-12-07T17:03:11;3.80;99.90
28837;DHT22;50669;50.982;11.022;2022-12-07T17:05:39;3.80;99.90
28837;DHT22;50669;50.982;11.022;2022-12-07T17:08:05;3.80;99.90
28837;DHT22;50669;50.982;11.022;2022-12-07T17:10:33;3.80;99.90
28837;DHT22;50669;50.982;11.022;2022-12-07T17:12:59;3.80;99.90
28837;DHT22;50669;50.982;11.022;2022-12-07T17:15:26;3.80;99.90
28837;DHT22;50669;50.982;11.022;2022-12-07T17:17:58;3.80;99.90
28837;DHT22;50669;50.982;11.022;2022-12-07T17:20:26;3.80;99.90
28837;DHT22;50669;50.982;11.022;2022-12-07T17:22:52;3.80;99.90
28837;DHT22;50669;50.982;11.022;2022-12-07T17:25:20;3.80;99.90
28837;DHT22;50669;50.982;11.022;2022-12-07T17:27:46;3.70;99.90
28837;DHT22;50669;50.982;11.022;2022-12-07T17:30:13;3.70;99.90
28837;DHT22;50669;50.982;11.022;2022-12-07T17:32:41;3.70;99.90
28837;DHT22;50669;50.982;11.022;2022-12-07T17:35:10;3.70;99.90
28837;DHT22;50669;50.982;11.022;2022-12-07T17:37:41;3.70;99.90
28837;DHT22;50669;50.982;11.022;2022-12-07T17:40:07;3.60;99.90
28837;DHT22;50669;50.982;11.022;2022-12-07T17:42:32;3.60;99.90
28837;DHT22;50669;50.982;11.022;2022-12-07T17:45:05;3.60;99.90
28837;DHT22;50669;50.982;11.022;2022-12-07T17:47:31;3.60;99.90
28837;DHT22;50669;50.982;11.022;2022-12-07T17:49:57;3.60;99.90
28837;DHT22;50669;50.982;11.022;2022-12-07T17:52:25;3.50;99.90
28837;DHT22;50669;50.982;11.022;2022-12-07T17:55:09;3.50;99.90
28837;DHT22;50669;50.982;11.022;2022-12-07T17:57:35;3.50;99.90
28837;DHT22;50669;50.982;11.022;2022-12-07T18:00:02;3.50;99.90
28837;DHT22;50669;50.982;11.022;2022-12-07T18:02:28;3.50;99.90
28837;DHT22;50669;50.982;11.022;2022-12-07T18:04:54;3.50;99.90